Observations
| Time | Sensor | AQI | SAQ | Temp °C | Hum % | Pres Pa | CO μg/m³ | H₂S μg/m³ | NO μg/m³ | NO₂ μg/m³ | O₃ μg/m³ | SO₂ μg/m³ | CO₂e PPM | VOC PPM | PM1 μg/m³ | PM2.5 μg/m³ | PM4 μg/m³ | PM10 μg/m³ | TPS µm |
|---|---|---|---|---|---|---|---|---|---|---|---|---|---|---|---|---|---|---|---|
| Tuesday 11 August 2026 | |||||||||||||||||||
| 06:27 | Trim Patrick St | 1 | 11 | 82 | 38,460 | 0.44 | 2.41 | 3.86 | 38.3 | 0 | 0 | 3.71 | 6.45 | 7.09 | |||||
| 06:26 | Trim Patrick St | 1 | 11 | 82 | 38,460 | 0.44 | 2.05 | 3.87 | 33.4 | 0 | 0 | 3.71 | 7.84 | 8.63 | |||||
| 06:25 | Trim Patrick St | 1 | 11 | 82 | 38,460 | 0.43 | 2.1 | 3.9 | 36.5 | 0 | 0 | 4.57 | 7.84 | 8.63 | |||||
| 06:24 | Trim Market St | 2 | 12.4 | 75 | 45,111 | 0.39 | 0 | 3.86 | 13.93 | 25.72 | 0 | 2.14 | 3.76 | 6.34 | |||||
| 06:24 | Trim Patrick St | 1 | 10.9 | 82 | 38,460 | 0.43 | 1.71 | 3.99 | 34.78 | 0 | 0 | 5.43 | 8.54 | 9.39 | |||||
| 06:23 | Trim Market St | 2 | 12.4 | 75 | 45,119 | 0.39 | 0 | 3.86 | 13.93 | 27.49 | 0 | 2.85 | 4.72 | 9.32 | |||||
| 06:23 | Trim Patrick St | 1 | 11 | 82 | 38,460 | 0.43 | 1.56 | 3.86 | 35.6 | 0 | 0 | 3.71 | 7.84 | 8.63 | |||||
| 06:22 | Trim Market St | 2 | 12.4 | 75 | 45,158 | 0.4 | 0 | 3.85 | 14.33 | 27.64 | 0 | 2.14 | 3.76 | 6.34 | |||||
| 06:22 | Trim Patrick St | 1 | 10.9 | 82 | 38,460 | 0.44 | 1.66 | 3.89 | 37.48 | 0 | 0 | 5.43 | 8.54 | 9.39 | |||||
| 06:21 | Trim Market St | 2 | 12.4 | 75 | 45,189 | 0.42 | 0 | 3.83 | 17.99 | 19.63 | 0 | 2.14 | 3.77 | 6.34 | |||||
| 06:21 | Trim Patrick St | 1 | 11 | 82 | 38,460 | 0.43 | 1.09 | 3.99 | 36.51 | 0 | 0 | 3.71 | 7.15 | 7.86 | |||||
| 06:20 | Trim Market St | 2 | 12.5 | 75 | 45,234 | 0.45 | 0 | 3.78 | 14.04 | 23.66 | 0 | 2.14 | 3.76 | 6.34 | |||||
| 06:19 | Trim Market St | 2 | 12.4 | 75 | 45,240 | 0.4 | 0 | 3.89 | 13.38 | 25.01 | 0 | 2.14 | 3.28 | 5.74 | |||||
| 06:19 | Trim Patrick St | 1 | 10.9 | 82 | 38,460 | 0.45 | 1.5 | 4.29 | 40.15 | 0 | 0 | 3.71 | 8.54 | 9.39 | |||||
| 06:18 | Trim Market St | 2 | 12.4 | 75 | 45,230 | 0.39 | 0 | 3.89 | 14.54 | 28.85 | 0 | 1.43 | 4.24 | 6.94 | |||||
| 06:18 | Trim Patrick St | 1 | 11 | 82 | 38,460 | 0.43 | 1.79 | 4.3 | 42.71 | 0 | 0 | 4.57 | 8.53 | 9.39 | |||||
| 06:17 | Trim Market St | 2 | 12.4 | 75 | 45,241 | 0.39 | 0 | 3.92 | 12.98 | 29.19 | 0 | 2.85 | 4.72 | 8.13 | |||||
| 06:17 | Trim Patrick St | 1 | 10.9 | 82 | 38,460 | 0.45 | 2.69 | 4.51 | 50.84 | 0 | 0 | 4.57 | 9.23 | 10.15 | |||||
| 06:16 | Trim Patrick St | 1 | 10.9 | 82 | 38,460 | 0.43 | 2.77 | 4.45 | 45.03 | 0 | 0 | 4.57 | 7.84 | 8.62 | |||||
| 06:15 | Trim Market St | 2 | 12.4 | 75 | 45,341 | 0.4 | 0 | 3.91 | 12.79 | 27.46 | 0 | 2.85 | 4.72 | 7.53 | |||||